Time;durP1;ratioP1;P1;durP2;ratioP2;P2;SDS_P1;SDS_P2;PMS_P1;PMS_P2;Temp;Humidity;BMP_temperature;BMP_pressure;BME280_temperature;BME280_humidity;BME280_pressure;Samples;Min_cycle;Max_cycle;Signal;HPM_P1;HPM_P2
2023/11/21 00:01:03;;;;;;;12.27;8.55;;;9.50;99.90;;;;;;5082880;28;20032;-37
2023/11/21 00:03:30;;;;;;;13.80;8.70;;;9.50;99.90;;;;;;5082667;28;20035;-37
2023/11/21 00:05:56;;;;;;;10.95;8.60;;;9.50;99.90;;;;;;5082131;28;20035;-37
2023/11/21 00:08:21;;;;;;;16.15;10.18;;;9.50;99.90;;;;;;5081807;28;20016;-43
2023/11/21 00:10:48;;;;;;;14.27;9.82;;;9.50;99.90;;;;;;5082548;28;20134;-37
2023/11/21 00:13:14;;;;;;;11.68;9.32;;;9.50;99.90;;;;;;5082389;28;20016;-35
2023/11/21 00:15:40;;;;;;;12.52;9.00;;;9.50;99.90;;;;;;5081806;28;20023;-42
2023/11/21 00:18:06;;;;;;;14.65;9.73;;;9.50;99.90;;;;;;5081792;28;20039;-36
2023/11/21 00:20:32;;;;;;;12.65;9.20;;;9.50;99.90;;;;;;5082493;28;20027;-38
2023/11/21 00:22:57;;;;;;;13.10;9.65;;;9.50;99.90;;;;;;5081107;28;20032;-37
2023/11/21 00:25:24;;;;;;;11.00;8.70;;;9.50;99.90;;;;;;5071362;28;20668;-36
2023/11/21 00:27:50;;;;;;;14.77;10.05;;;9.50;99.90;;;;;;5081566;28;20295;-37
2023/11/21 00:30:20;;;;;;;15.82;9.93;;;9.40;99.90;;;;;;5081793;28;20832;-37
2023/11/21 00:32:46;;;;;;;14.05;9.70;;;9.50;99.90;;;;;;5082647;28;20024;-37
2023/11/21 00:35:11;;;;;;;14.88;10.10;;;9.40;99.90;;;;;;5082123;28;20387;-36
2023/11/21 00:37:38;;;;;;;13.73;9.07;;;9.40;99.90;;;;;;5081891;28;20577;-38
2023/11/21 00:40:05;;;;;;;14.32;10.30;;;9.40;99.90;;;;;;5082499;28;20871;-38
2023/11/21 00:42:33;;;;;;;14.05;9.48;;;9.30;99.90;;;;;;5082306;28;20132;-38
2023/11/21 00:44:59;;;;;;;15.23;10.05;;;9.30;99.90;;;;;;5080490;28;20028;-39
2023/11/21 00:47:25;;;;;;;13.93;10.07;;;9.30;99.90;;;;;;5082210;28;20115;-38
2023/11/21 00:49:51;;;;;;;14.88;10.15;;;9.30;99.90;;;;;;5081237;28;20116;-37
2023/11/21 00:52:16;;;;;;;13.02;9.15;;;9.20;99.90;;;;;;5081802;28;20044;-37
2023/11/21 00:54:42;;;;;;;14.32;9.63;;;9.20;99.90;;;;;;5081280;28;20024;-37
2023/11/21 00:57:08;;;;;;;12.85;9.80;;;9.20;99.90;;;;;;5080944;28;20092;-37
2023/11/21 00:59:34;;;;;;;13.63;9.90;;;9.20;99.90;;;;;;5080639;28;20066;-38
2023/11/21 01:02:01;;;;;;;14.80;9.38;;;9.20;99.90;;;;;;5082157;28;20031;-37
2023/11/21 01:04:27;;;;;;;13.70;10.02;;;9.20;99.90;;;;;;5082360;28;20031;-38
2023/11/21 01:06:53;;;;;;;13.63;9.48;;;9.20;99.90;;;;;;5081517;28;20063;-36
2023/11/21 01:09:19;;;;;;;14.95;9.85;;;9.30;99.90;;;;;;5081773;28;20108;-37
2023/11/21 01:11:44;;;;;;;15.98;10.18;;;9.30;99.90;;;;;;5081216;28;20071;-35
2023/11/21 01:14:10;;;;;;;17.30;10.20;;;9.30;99.90;;;;;;5081566;28;20125;-37
2023/11/21 01:16:35;;;;;;;14.25;10.43;;;9.30;99.90;;;;;;5082247;28;20039;-38
2023/11/21 01:19:01;;;;;;;15.02;10.00;;;9.40;99.90;;;;;;5081203;28;20076;-37
2023/11/21 01:21:28;;;;;;;16.70;10.32;;;9.40;99.90;;;;;;5081563;28;20052;-36
2023/11/21 01:23:55;;;;;;;15.82;9.35;;;9.40;99.90;;;;;;5081880;28;20027;-37
2023/11/21 01:26:20;;;;;;;14.90;10.52;;;9.40;99.90;;;;;;5080585;28;20051;-37
2023/11/21 01:28:48;;;;;;;13.73;9.35;;;9.50;99.90;;;;;;5081163;28;20491;-38
2023/11/21 01:31:17;;;;;;;13.70;9.18;;;9.50;99.90;;;;;;5081259;28;20032;-37
2023/11/21 01:33:43;;;;;;;12.52;9.25;;;9.50;99.90;;;;;;5080932;28;20059;-38
2023/11/21 01:36:09;;;;;;;11.98;9.07;;;9.50;99.90;;;;;;5080932;28;20096;-37
2023/11/21 01:38:35;;;;;;;14.25;8.95;;;9.50;99.90;;;;;;5081461;28;20024;-37
2023/11/21 01:41:00;;;;;;;13.82;8.88;;;9.50;99.90;;;;;;5080212;28;20039;-37
2023/11/21 01:43:27;;;;;;;13.02;9.30;;;9.50;99.90;;;;;;5081127;28;20107;-36
2023/11/21 01:45:56;;;;;;;14.73;9.10;;;9.50;99.90;;;;;;5081357;28;20035;-37
2023/11/21 01:48:23;;;;;;;14.65;10.35;;;9.60;99.90;;;;;;5080538;28;20585;-35
2023/11/21 01:50:49;;;;;;;15.70;10.27;;;9.60;99.90;;;;;;5080291;28;20036;-37
2023/11/21 01:53:15;;;;;;;14.00;9.82;;;9.60;99.90;;;;;;5080235;28;20044;-36
2023/11/21 01:55:42;;;;;;;14.93;10.25;;;9.60;99.90;;;;;;5081210;28;20022;-36
2023/11/21 01:58:10;;;;;;;11.88;8.38;;;9.60;99.90;;;;;;5080870;28;20032;-36
2023/11/21 02:00:36;;;;;;;12.38;9.60;;;9.60;99.90;;;;;;5081667;28;20326;-37
2023/11/21 02:03:02;;;;;;;13.98;9.57;;;9.60;99.90;;;;;;5080753;28;20024;-43
2023/11/21 02:05:29;;;;;;;17.70;11.18;;;9.60;99.90;;;;;;5081296;28;20576;-36
2023/11/21 02:07:57;;;;;;;17.20;11.02;;;9.60;99.90;;;;;;5079977;28;20059;-38
2023/11/21 02:10:23;;;;;;;16.00;10.68;;;9.60;99.90;;;;;;5082492;28;20016;-36
2023/11/21 02:12:52;;;;;;;16.45;10.95;;;9.60;99.90;;;;;;5084783;28;20097;-39
2023/11/21 02:15:20;;;;;;;23.60;10.70;;;9.60;99.90;;;;;;5084956;28;20035;-37
2023/11/21 02:17:53;;;;;;;16.13;9.98;;;9.60;99.90;;;;;;5085387;28;20035;-38
2023/11/21 02:20:26;;;;;;;14.48;9.98;;;9.60;99.90;;;;;;5085655;28;20088;-38
2023/11/21 02:22:57;;;;;;;16.15;11.23;;;9.60;99.90;;;;;;5083633;28;20028;-37
2023/11/21 02:25:30;;;;;;;16.77;10.75;;;9.60;99.90;;;;;;5085488;28;20422;-37
2023/11/21 02:28:03;;;;;;;14.70;10.75;;;9.60;99.90;;;;;;5084745;28;20051;-38
2023/11/21 02:30:28;;;;;;;;;;;9.60;99.90;;;;;;5083959;28;20487;-37
2023/11/21 02:32:56;;;;;;;14.20;9.98;;;9.60;99.90;;;;;;5083523;28;20402;-37
2023/11/21 02:35:22;;;;;;;13.18;9.25;;;9.50;99.90;;;;;;5084229;28;20108;-37
2023/11/21 02:37:48;;;;;;;18.42;11.30;;;9.50;99.90;;;;;;5084078;28;20030;-36
2023/11/21 02:40:17;;;;;;;15.48;11.43;;;9.50;99.90;;;;;;5085174;28;20031;-37
2023/11/21 02:42:44;;;;;;;14.00;10.73;;;9.50;99.90;;;;;;5083779;28;20028;-37
2023/11/21 02:45:12;;;;;;;16.90;10.00;;;9.50;99.90;;;;;;5083869;28;20073;-37
2023/11/21 02:47:39;;;;;;;15.77;11.00;;;9.60;99.90;;;;;;5084454;28;20073;-37
2023/11/21 02:50:06;;;;;;;15.85;10.77;;;9.50;99.90;;;;;;5083569;28;20491;-37
2023/11/21 02:52:33;;;;;;;16.98;10.68;;;9.60;99.90;;;;;;5084057;28;20494;-37
2023/11/21 02:54:58;;;;;;;16.40;10.18;;;9.60;99.90;;;;;;5083937;28;20853;-37
2023/11/21 02:57:24;;;;;;;14.15;9.60;;;9.60;99.90;;;;;;5083611;28;20036;-36
2023/11/21 02:59:50;;;;;;;14.52;10.45;;;9.60;99.90;;;;;;5082933;28;20391;-37
2023/11/21 03:02:15;;;;;;;12.60;9.63;;;9.60;99.90;;;;;;5084647;28;20031;-39
2023/11/21 03:04:42;;;;;;;12.63;8.48;;;9.60;99.90;;;;;;5083526;28;20044;-39
2023/11/21 03:07:09;;;;;;;13.57;8.90;;;9.60;99.90;;;;;;5084236;28;20035;-37
2023/11/21 03:09:35;;;;;;;12.80;9.27;;;9.50;99.90;;;;;;5083766;28;20056;-38
2023/11/21 03:12:00;;;;;;;13.57;9.45;;;9.50;99.90;;;;;;5083258;28;20075;-37
2023/11/21 03:14:26;;;;;;;14.40;9.73;;;9.50;99.90;;;;;;5083735;28;20131;-37
2023/11/21 03:16:51;;;;;;;11.75;9.02;;;9.50;99.90;;;;;;5083216;28;20035;-38
2023/11/21 03:19:17;;;;;;;14.80;9.73;;;9.60;99.90;;;;;;5083392;28;20024;-37
2023/11/21 03:21:43;;;;;;;12.05;9.57;;;9.50;99.90;;;;;;5082298;28;20032;-36
2023/11/21 03:24:08;;;;;;;10.63;8.52;;;9.50;99.90;;;;;;5083513;28;20103;-37
2023/11/21 03:26:34;;;;;;;12.38;8.65;;;9.50;99.90;;;;;;5083217;28;20469;-37
2023/11/21 03:29:00;;;;;;;10.32;8.27;;;9.50;99.90;;;;;;5083879;28;20020;-38
2023/11/21 03:31:26;;;;;;;10.45;8.00;;;9.50;99.90;;;;;;5083984;28;20032;-37
2023/11/21 03:33:53;;;;;;;11.85;8.10;;;9.50;99.90;;;;;;5082489;28;20499;-35
2023/11/21 03:36:19;;;;;;;9.73;8.27;;;9.50;99.90;;;;;;5080030;28;20131;-38
2023/11/21 03:38:45;;;;;;;11.30;7.80;;;9.50;99.90;;;;;;5083048;28;20525;-36
2023/11/21 03:41:11;;;;;;;13.27;8.13;;;9.50;99.90;;;;;;5083301;28;20534;-37
2023/11/21 03:43:37;;;;;;;9.73;7.55;;;9.50;99.90;;;;;;5083308;28;20024;-37
2023/11/21 03:46:03;;;;;;;10.13;7.93;;;9.50;99.90;;;;;;5082292;28;20028;-35
2023/11/21 03:48:28;;;;;;;12.18;7.38;;;9.50;99.90;;;;;;5084268;28;20035;-37
2023/11/21 03:50:54;;;;;;;10.68;7.68;;;9.50;99.90;;;;;;5080255;28;20388;-38
2023/11/21 03:53:20;;;;;;;12.23;9.27;;;9.50;99.90;;;;;;5082943;28;20028;-36
2023/11/21 03:55:45;;;;;;;10.77;8.38;;;9.50;99.90;;;;;;5083675;28;20020;-36
2023/11/21 03:58:11;;;;;;;9.98;8.20;;;9.50;99.90;;;;;;5082961;28;20356;-37
2023/11/21 04:00:37;;;;;;;9.10;7.30;;;9.50;99.90;;;;;;5082634;28;20035;-37
2023/11/21 04:03:03;;;;;;;12.23;8.20;;;9.50;99.90;;;;;;5082534;28;20107;-36
2023/11/21 04:05:28;;;;;;;8.45;7.03;;;9.50;99.90;;;;;;5083432;28;20463;-39
2023/11/21 04:07:54;;;;;;;10.40;7.72;;;9.50;99.90;;;;;;5082150;28;20028;-37
2023/11/21 04:10:20;;;;;;;9.82;7.50;;;9.50;99.90;;;;;;5082589;28;20517;-37
2023/11/21 04:12:46;;;;;;;11.27;7.65;;;9.50;99.90;;;;;;5082725;28;20147;-36
2023/11/21 04:15:15;;;;;;;11.57;7.97;;;9.50;99.90;;;;;;5082108;28;20073;-45
2023/11/21 04:17:41;;;;;;;10.88;7.80;;;9.50;99.90;;;;;;5082266;28;20073;-37
2023/11/21 04:20:09;;;;;;;11.10;8.00;;;9.50;99.90;;;;;;5081977;28;20734;-37
2023/11/21 04:22:43;;;;;;;10.90;8.05;;;9.50;99.90;;;;;;5082164;28;20260;-37
2023/11/21 04:25:15;;;;;;;9.63;7.40;;;9.50;99.90;;;;;;5082953;28;20035;-36
2023/11/21 04:27:44;;;;;;;10.75;8.02;;;9.50;99.90;;;;;;5082287;28;20039;-39
2023/11/21 04:30:11;;;;;;;12.60;8.88;;;9.50;99.90;;;;;;5082459;28;20119;-37
2023/11/21 04:32:37;;;;;;;13.50;9.00;;;9.50;99.90;;;;;;5082934;28;20032;-36
2023/11/21 04:35:03;;;;;;;10.60;8.20;;;9.50;99.90;;;;;;5082044;28;20464;-37
2023/11/21 04:37:29;;;;;;;12.18;8.15;;;9.50;99.90;;;;;;5083832;28;20102;-37
2023/11/21 04:39:55;;;;;;;14.30;8.93;;;9.50;99.90;;;;;;5082601;28;20837;-37
2023/11/21 04:42:21;;;;;;;10.52;7.40;;;9.50;99.90;;;;;;5082165;28;20466;-38
2023/11/21 04:44:47;;;;;;;10.07;7.13;;;9.50;99.90;;;;;;5082887;28;20054;-40
2023/11/21 04:47:12;;;;;;;8.82;6.95;;;9.50;99.90;;;;;;5081631;28;20102;-37
2023/11/21 04:49:43;;;;;;;10.00;6.82;;;9.40;99.90;;;;;;5081398;28;20468;-37
2023/11/21 04:52:09;;;;;;;8.25;6.88;;;9.50;99.90;;;;;;5061618;28;20032;-38
2023/11/21 04:54:35;;;;;;;9.35;7.45;;;9.50;99.90;;;;;;5062253;28;20024;-37
2023/11/21 04:57:01;;;;;;;9.50;7.32;;;9.50;99.90;;;;;;5061312;28;20078;-37
2023/11/21 04:59:27;;;;;;;9.52;6.95;;;9.40;99.90;;;;;;5062483;28;20024;-36
2023/11/21 05:01:53;;;;;;;10.18;8.00;;;9.50;99.90;;;;;;5061084;28;20043;-37
2023/11/21 05:04:20;;;;;;;8.88;6.45;;;9.50;99.90;;;;;;5060883;28;20063;-36
2023/11/21 05:06:46;;;;;;;10.18;7.40;;;9.50;99.90;;;;;;5061178;28;20086;-36
2023/11/21 05:09:11;;;;;;;8.27;6.38;;;9.50;99.90;;;;;;5060922;28;20020;-35
2023/11/21 05:11:38;;;;;;;9.13;6.93;;;9.50;99.90;;;;;;5060877;28;20395;-37
2023/11/21 05:14:05;;;;;;;8.23;6.50;;;9.50;99.90;;;;;;5060596;28;20359;-41
2023/11/21 05:16:31;;;;;;;9.00;6.80;;;9.50;99.90;;;;;;5062096;28;20482;-37
2023/11/21 05:19:00;;;;;;;7.57;6.55;;;9.50;99.90;;;;;;5060159;28;20097;-37
2023/11/21 05:21:26;;;;;;;7.90;5.95;;;9.50;99.90;;;;;;5061731;28;20029;-45
2023/11/21 05:23:52;;;;;;;6.38;5.05;;;9.50;99.90;;;;;;5060592;28;20093;-37
2023/11/21 05:26:18;;;;;;;7.50;6.10;;;9.50;99.90;;;;;;5060866;28;20565;-38
2023/11/21 05:28:43;;;;;;;6.63;5.85;;;9.50;99.90;;;;;;5061114;28;20449;-36
2023/11/21 05:31:10;;;;;;;8.27;6.57;;;9.50;99.90;;;;;;5061135;28;20032;-37
2023/11/21 05:33:36;;;;;;;7.78;5.97;;;9.50;99.90;;;;;;5061093;28;20012;-39
2023/11/21 05:36:02;;;;;;;9.82;6.70;;;9.50;99.90;;;;;;5059485;28;20047;-38
2023/11/21 05:38:27;;;;;;;8.95;6.63;;;9.50;99.90;;;;;;5059123;28;20024;-38
2023/11/21 05:40:54;;;;;;;10.35;7.63;;;9.50;99.90;;;;;;5047878;28;20027;-37
2023/11/21 05:43:19;;;;;;;8.75;7.18;;;9.50;99.90;;;;;;5059580;28;20824;-36
2023/11/21 05:45:45;;;;;;;9.27;7.07;;;9.50;99.90;;;;;;5058536;28;20021;-35
2023/11/21 05:48:10;;;;;;;9.13;6.97;;;9.50;99.90;;;;;;5059374;28;20024;-36
2023/11/21 05:50:38;;;;;;;8.70;7.05;;;9.50;99.90;;;;;;5068995;28;20054;-37
2023/11/21 05:53:03;;;;;;;10.20;8.00;;;9.60;99.90;;;;;;5080099;28;20028;-40
2023/11/21 05:55:29;;;;;;;12.18;8.10;;;9.50;99.90;;;;;;5081129;28;20030;-37
2023/11/21 05:57:55;;;;;;;8.77;7.43;;;9.60;99.90;;;;;;5081457;28;20048;-37
2023/11/21 06:00:25;;;;;;;8.63;6.80;;;9.60;99.90;;;;;;5079206;28;20719;-37
2023/11/21 06:02:54;;;;;;;9.45;7.20;;;9.60;99.90;;;;;;5080617;28;20053;-36
2023/11/21 06:05:23;;;;;;;9.60;7.50;;;9.60;99.90;;;;;;5081626;28;20053;-37
2023/11/21 06:07:49;;;;;;;9.52;7.40;;;9.60;99.90;;;;;;5080388;28;20032;-35
2023/11/21 06:10:17;;;;;;;10.10;8.27;;;9.60;99.90;;;;;;5080742;28;20476;-36
2023/11/21 06:12:43;;;;;;;9.05;7.32;;;9.70;99.90;;;;;;5080455;28;20464;-37
2023/11/21 06:15:13;;;;;;;10.45;7.40;;;9.60;99.90;;;;;;5079893;28;20016;-36
2023/11/21 06:17:39;;;;;;;10.32;7.63;;;9.60;99.90;;;;;;5080481;28;20051;-37
2023/11/21 06:20:09;;;;;;;10.65;7.97;;;9.70;99.90;;;;;;5080638;28;20020;-37
2023/11/21 06:22:39;;;;;;;10.35;7.72;;;9.70;99.90;;;;;;5080228;28;20426;-37
2023/11/21 06:25:09;;;;;;;9.52;7.25;;;9.60;99.90;;;;;;5080605;28;20020;-37
2023/11/21 06:27:40;;;;;;;8.35;6.55;;;9.60;99.90;;;;;;5080670;28;20720;-38
2023/11/21 06:30:09;;;;;;;9.63;6.97;;;9.70;99.90;;;;;;5080357;28;20020;-38
2023/11/21 06:32:35;;;;;;;10.32;7.43;;;9.70;99.90;;;;;;5081210;28;20085;-37
2023/11/21 06:35:01;;;;;;;9.30;6.38;;;9.70;99.90;;;;;;5079292;28;20379;-37
2023/11/21 06:37:28;;;;;;;9.00;6.90;;;9.70;99.90;;;;;;5080996;28;20028;-37
2023/11/21 06:39:54;;;;;;;12.25;8.63;;;9.70;99.90;;;;;;5080560;28;20390;-37
2023/11/21 06:42:20;;;;;;;11.02;7.85;;;9.70;99.90;;;;;;5080855;28;20024;-37
2023/11/21 06:44:53;;;;;;;11.07;7.70;;;9.70;99.90;;;;;;5081022;28;20052;-40
2023/11/21 06:47:26;;;;;;;9.68;7.32;;;9.70;99.90;;;;;;5080872;28;20020;-37
2023/11/21 06:49:52;;;;;;;8.13;6.53;;;9.70;99.90;;;;;;5079320;28;20016;-38
2023/11/21 06:52:21;;;;;;;8.82;6.80;;;9.70;99.90;;;;;;5079978;28;20750;-37
2023/11/21 06:54:49;;;;;;;9.70;7.15;;;9.70;99.90;;;;;;5080201;28;20028;-37
2023/11/21 06:57:15;;;;;;;8.18;6.75;;;9.70;99.90;;;;;;5082954;28;20032;-38
2023/11/21 06:59:40;;;;;;;9.30;7.13;;;9.70;99.90;;;;;;5084210;28;20082;-39
2023/11/21 07:02:06;;;;;;;11.98;7.85;;;9.70;99.90;;;;;;5083835;28;20471;-37
2023/11/21 07:04:32;;;;;;;10.48;8.15;;;9.70;99.90;;;;;;5082154;28;20554;-38
2023/11/21 07:06:58;;;;;;;12.25;7.88;;;9.70;99.90;;;;;;5082327;28;20035;-36
2023/11/21 07:09:25;;;;;;;10.82;8.18;;;9.70;99.90;;;;;;5083063;28;20024;-36
2023/11/21 07:11:51;;;;;;;13.10;8.70;;;9.70;99.90;;;;;;5082095;28;20077;-36
2023/11/21 07:14:19;;;;;;;12.27;8.27;;;9.80;99.90;;;;;;5083034;28;20480;-37
2023/11/21 07:16:45;;;;;;;10.65;8.40;;;9.80;99.90;;;;;;5082047;28;20028;-37
2023/11/21 07:19:12;;;;;;;10.57;8.05;;;9.80;99.90;;;;;;5082458;28;20024;-37
2023/11/21 07:21:38;;;;;;;8.73;7.20;;;9.80;99.90;;;;;;5082918;28;20076;-37
2023/11/21 07:24:04;;;;;;;9.32;8.02;;;9.80;99.90;;;;;;5081938;28;20020;-36
2023/11/21 07:26:30;;;;;;;11.88;9.05;;;9.80;99.90;;;;;;5083358;28;20024;-37
2023/11/21 07:28:56;;;;;;;11.82;8.85;;;9.80;99.90;;;;;;5082065;28;20510;-36
2023/11/21 07:31:24;;;;;;;12.48;9.05;;;9.90;99.90;;;;;;5082108;28;20067;-37
2023/11/21 07:33:51;;;;;;;12.05;8.85;;;9.90;99.90;;;;;;5082810;28;20070;-36
2023/11/21 07:36:23;;;;;;;12.27;9.32;;;9.90;99.90;;;;;;5083076;28;20093;-37
2023/11/21 07:38:49;;;;;;;12.15;8.52;;;10.00;99.90;;;;;;5082294;28;20074;-37
2023/11/21 07:41:15;;;;;;;12.45;8.90;;;9.90;99.90;;;;;;5083331;28;20034;-37
2023/11/21 07:43:42;;;;;;;13.35;10.32;;;9.90;99.90;;;;;;5082525;28;20024;-37
2023/11/21 07:46:08;;;;;;;13.25;9.68;;;9.90;99.90;;;;;;5082276;28;20055;-40
2023/11/21 07:48:34;;;;;;;13.80;9.52;;;9.90;99.90;;;;;;5083375;28;20471;-41
2023/11/21 07:51:01;;;;;;;11.48;8.88;;;10.00;99.90;;;;;;5082997;28;20067;-39
2023/11/21 07:53:29;;;;;;;11.30;8.30;;;10.00;99.90;;;;;;5077580;28;20047;-42
2023/11/21 07:55:56;;;;;;;12.07;8.68;;;10.00;99.90;;;;;;5075958;28;20828;-38
2023/11/21 07:58:21;;;;;;;11.65;8.80;;;10.10;99.90;;;;;;5079763;28;20020;-38
2023/11/21 08:00:47;;;;;;;11.63;8.90;;;10.00;99.90;;;;;;5072645;28;20486;-37
2023/11/21 08:03:16;;;;;;;10.73;8.00;;;10.10;99.90;;;;;;5082582;28;20094;-38
2023/11/21 08:05:42;;;;;;;13.10;8.93;;;10.10;99.90;;;;;;5071885;28;20014;-41
2023/11/21 08:08:08;;;;;;;13.18;9.30;;;10.10;99.90;;;;;;5080316;28;20024;-42
2023/11/21 08:10:38;;;;;;;12.45;8.45;;;10.10;99.90;;;;;;5072189;28;20035;-37
2023/11/21 08:13:04;;;;;;;14.90;8.70;;;10.10;99.90;;;;;;5081258;28;20043;-38
2023/11/21 08:15:33;;;;;;;10.73;8.02;;;10.10;99.90;;;;;;5070995;28;20107;-38
2023/11/21 08:17:59;;;;;;;12.02;8.32;;;10.20;99.90;;;;;;5082714;28;20150;-36
2023/11/21 08:20:25;;;;;;;12.30;8.15;;;10.20;99.90;;;;;;5069144;28;20107;-38
2023/11/21 08:22:52;;;;;;;12.27;9.38;;;10.20;99.90;;;;;;5082353;28;20077;-37
2023/11/21 08:25:19;;;;;;;12.45;8.35;;;10.10;99.90;;;;;;5069798;28;20028;-37
2023/11/21 08:27:46;;;;;;;11.27;8.43;;;10.20;99.90;;;;;;5081205;28;20028;-39
2023/11/21 08:30:13;;;;;;;13.82;9.73;;;10.10;99.90;;;;;;5071296;28;20067;-37
2023/11/21 08:32:40;;;;;;;15.55;10.65;;;10.20;99.90;;;;;;5080331;28;20036;-38
2023/11/21 08:35:07;;;;;;;14.35;9.93;;;10.20;99.90;;;;;;5074248;28;20040;-38
2023/11/21 08:37:37;;;;;;;16.83;11.00;;;10.20;99.90;;;;;;5078020;28;20591;-38
2023/11/21 08:40:04;;;;;;;15.40;10.43;;;10.20;99.90;;;;;;5075750;28;20099;-37
2023/11/21 08:42:29;;;;;;;15.43;10.43;;;10.20;99.90;;;;;;5075223;28;20499;-41
2023/11/21 08:44:57;;;;;;;14.68;10.55;;;10.20;99.90;;;;;;5078325;28;20024;-37
2023/11/21 08:47:24;;;;;;;16.98;10.05;;;10.30;99.90;;;;;;5073669;28;20092;-41
2023/11/21 08:49:52;;;;;;;14.25;9.02;;;10.30;99.90;;;;;;5079705;28;20465;-38
2023/11/21 08:52:22;;;;;;;12.48;8.52;;;10.40;99.90;;;;;;5042894;28;20060;-37
2023/11/21 08:54:55;;;;;;;16.55;9.68;;;10.30;99.90;;;;;;5046576;28;20023;-38
2023/11/21 08:57:24;;;;;;;14.70;9.55;;;10.40;99.90;;;;;;5071764;28;20377;-38
2023/11/21 08:59:55;;;;;;;17.23;9.98;;;10.40;99.90;;;;;;5062504;28;20033;-38
2023/11/21 09:02:23;;;;;;;17.17;10.63;;;10.40;99.90;;;;;;5071438;28;20836;-37
2023/11/21 09:04:49;;;;;;;17.73;11.13;;;10.40;99.90;;;;;;5062079;28;20027;-39
2023/11/21 09:07:15;;;;;;;16.90;11.50;;;10.50;99.90;;;;;;5072774;28;20017;-38
2023/11/21 09:09:40;;;;;;;21.73;11.80;;;10.50;99.90;;;;;;5060790;28;20041;-37
2023/11/21 09:12:06;;;;;;;19.00;11.93;;;10.50;99.90;;;;;;5073636;28;20861;-37
2023/11/21 09:14:32;;;;;;;19.63;11.07;;;10.60;99.90;;;;;;5060952;28;20035;-38
2023/11/21 09:16:57;;;;;;;16.05;10.60;;;10.50;99.90;;;;;;5070961;28;20130;-38
2023/11/21 09:19:23;;;;;;;15.23;9.90;;;10.60;99.90;;;;;;5060919;28;20056;-36
2023/11/21 09:21:49;;;;;;;15.25;10.18;;;10.60;99.90;;;;;;5068656;28;20238;-38
2023/11/21 09:24:15;;;;;;;19.60;10.70;;;10.60;99.90;;;;;;5064383;28;20363;-37
2023/11/21 09:26:41;;;;;;;20.63;12.02;;;10.60;99.90;;;;;;5068145;28;20065;-37
2023/11/21 09:29:08;;;;;;;18.13;11.43;;;10.60;99.90;;;;;;5078121;28;20035;-39
2023/11/21 09:31:33;;;;;;;16.55;11.07;;;10.60;99.90;;;;;;5076626;28;20028;-37
2023/11/21 09:33:59;;;;;;;19.55;11.75;;;10.60;99.90;;;;;;5072334;28;20036;-37
2023/11/21 09:36:27;;;;;;;18.77;11.85;;;10.60;99.90;;;;;;5079104;28;20028;-38
2023/11/21 09:38:56;;;;;;;18.42;12.35;;;10.60;99.90;;;;;;5068839;28;20021;-37
2023/11/21 09:41:46;;;;;;;20.98;14.00;;;10.70;99.90;;;;;;5079125;28;20396;-36
2023/11/21 09:44:17;;;;;;;22.35;14.02;;;10.70;99.90;;;;;;5062009;28;20032;-36
2023/11/21 09:46:42;;;;;;;19.02;13.10;;;10.70;99.90;;;;;;5077462;28;20569;-37
2023/11/21 09:49:13;;;;;;;24.33;14.50;;;10.70;99.90;;;;;;5069678;28;20031;-37
2023/11/21 09:51:43;;;;;;;19.83;13.00;;;10.80;99.90;;;;;;5078511;28;20046;-36
2023/11/21 09:54:11;;;;;;;20.50;12.35;;;10.80;99.90;;;;;;5069451;28;20034;-39
2023/11/21 09:56:37;;;;;;;21.17;13.05;;;10.80;99.90;;;;;;5079677;28;20533;-36
2023/11/21 09:59:07;;;;;;;17.92;11.85;;;10.90;99.90;;;;;;5068331;28;20040;-37
2023/11/21 10:01:33;;;;;;;22.38;12.88;;;10.90;99.90;;;;;;5081174;28;20020;-37
2023/11/21 10:03:59;;;;;;;17.70;11.60;;;11.00;99.90;;;;;;5067443;28;20488;-40
2023/11/21 10:06:26;;;;;;;17.83;11.15;;;11.00;99.90;;;;;;5079866;28;20035;-37
2023/11/21 10:08:54;;;;;;;20.13;11.93;;;11.10;99.90;;;;;;5067109;28;20098;-37
2023/11/21 10:11:22;;;;;;;15.57;10.25;;;11.20;99.90;;;;;;5080570;28;20792;-38
2023/11/21 10:13:51;;;;;;;14.00;10.27;;;11.20;99.90;;;;;;5068959;28;20354;-37
2023/11/21 10:16:21;;;;;;;19.48;12.57;;;11.30;99.90;;;;;;5080370;28;20084;-38
2023/11/21 10:18:49;;;;;;;19.10;12.93;;;11.40;99.90;;;;;;5070845;28;20086;-38
2023/11/21 10:21:18;;;;;;;17.48;10.95;;;11.40;99.90;;;;;;5076926;28;20547;-37
2023/11/21 10:23:44;;;;;;;15.35;11.30;;;11.40;99.90;;;;;;5072606;28;20481;-36
2023/11/21 10:26:16;;;;;;;15.25;11.20;;;11.50;99.90;;;;;;5075416;28;20024;-37
2023/11/21 10:29:05;;;;;;;15.10;10.40;;;11.50;99.90;;;;;;5073619;28;20030;-37
2023/11/21 10:31:32;;;;;;;13.40;9.50;;;11.50;99.90;;;;;;5079216;28;20065;-38
2023/11/21 10:34:16;;;;;;;14.30;10.27;;;11.50;99.90;;;;;;5076226;28;20527;-37
2023/11/21 10:36:42;;;;;;;14.35;10.05;;;11.50;99.90;;;;;;5080947;28;20056;-37
2023/11/21 10:39:09;;;;;;;12.70;8.93;;;11.50;99.90;;;;;;5077156;28;20179;-39
2023/11/21 10:41:35;;;;;;;13.43;9.27;;;11.50;99.90;;;;;;5078840;28;20062;-38
2023/11/21 10:44:04;;;;;;;12.68;8.98;;;11.60;99.90;;;;;;5079345;28;20036;-38
2023/11/21 10:46:30;;;;;;;11.75;8.43;;;11.60;99.90;;;;;;5076419;28;20028;-37
2023/11/21 10:48:56;;;;;;;9.25;7.68;;;11.60;99.90;;;;;;5081064;28;20046;-37
2023/11/21 10:51:24;;;;;;;10.90;8.30;;;11.60;99.90;;;;;;5077960;28;20586;-37
2023/11/21 10:53:54;;;;;;;9.52;8.00;;;11.60;99.90;;;;;;5083950;28;20023;-38
2023/11/21 10:56:25;;;;;;;10.98;8.65;;;11.60;99.90;;;;;;5083408;28;20063;-39
2023/11/21 10:58:51;;;;;;;12.82;9.07;;;11.50;99.90;;;;;;5084001;28;20078;-37
2023/11/21 11:01:21;;;;;;;13.00;9.20;;;11.50;99.90;;;;;;5085057;28;20028;-36
2023/11/21 11:03:48;;;;;;;14.80;11.02;;;11.50;99.90;;;;;;5082732;28;20047;-38
2023/11/21 11:06:14;;;;;;;11.68;8.90;;;11.40;99.90;;;;;;5084123;28;20032;-37
2023/11/21 11:08:41;;;;;;;12.20;8.35;;;11.40;99.90;;;;;;5084141;28;20132;-37
2023/11/21 11:11:07;;;;;;;11.07;8.63;;;11.40;99.90;;;;;;5083110;28;20434;-37
2023/11/21 11:13:33;;;;;;;12.63;9.02;;;11.40;99.90;;;;;;5084633;28;20047;-37
2023/11/21 11:16:01;;;;;;;10.60;7.93;;;11.40;99.90;;;;;;5082399;28;20360;-37
2023/11/21 11:18:30;;;;;;;11.93;8.45;;;11.40;99.90;;;;;;5084428;28;20753;-38
2023/11/21 11:21:09;;;;;;;12.20;8.45;;;11.40;99.90;;;;;;5083210;28;20122;-38
2023/11/21 11:23:46;;;;;;;14.35;10.10;;;11.40;99.90;;;;;;5082977;28;20619;-37
2023/11/21 11:26:35;;;;;;;15.57;9.43;;;11.40;99.90;;;;;;5083526;28;20028;-37
2023/11/21 11:29:19;;;;;;;14.52;9.18;;;11.30;99.90;;;;;;5063855;28;20357;-38
2023/11/21 11:32:09;;;;;;;15.25;10.77;;;11.30;99.90;;;;;;5063084;28;20036;-37
2023/11/21 11:34:41;;;;;;;19.02;12.00;;;11.30;99.90;;;;;;5083691;28;20121;-36
2023/11/21 11:37:10;;;;;;;13.95;9.85;;;11.30;99.90;;;;;;5082620;28;20046;-37
2023/11/21 11:39:41;;;;;;;18.00;10.63;;;11.30;99.90;;;;;;5084193;28;20024;-37
2023/11/21 11:42:13;;;;;;;18.05;11.10;;;11.30;99.90;;;;;;5082571;28;20024;-37
2023/11/21 11:44:50;;;;;;;16.10;11.00;;;11.30;99.90;;;;;;5083236;28;20361;-37
2023/11/21 11:47:21;;;;;;;18.85;11.13;;;11.20;99.90;;;;;;5083421;28;20698;-36
2023/11/21 11:50:41;;;;;;;15.65;11.23;;;11.30;99.90;;;;;;5083424;28;20051;-36
2023/11/21 11:53:15;;;;;;;14.73;9.73;;;11.30;99.90;;;;;;5078859;28;20547;-37
2023/11/21 11:55:42;;;;;;;14.10;9.48;;;11.30;99.90;;;;;;5082787;28;20070;-38
2023/11/21 11:58:08;;;;;;;13.93;9.30;;;11.20;99.90;;;;;;5081770;28;20460;-38
2023/11/21 12:00:37;;;;;;;10.48;7.80;;;11.30;99.90;;;;;;5083387;28;20024;-37
2023/11/21 12:03:05;;;;;;;10.38;7.95;;;11.40;99.90;;;;;;5082578;28;20027;-37
2023/11/21 12:05:45;;;;;;;9.98;7.22;;;11.40;99.90;;;;;;5082433;28;20028;-37
2023/11/21 12:08:11;;;;;;;12.88;8.98;;;11.50;99.90;;;;;;5082313;28;20024;-37
2023/11/21 12:10:39;;;;;;;12.05;8.65;;;11.60;99.90;;;;;;5083384;28;20024;-41
2023/11/21 12:13:12;;;;;;;10.48;7.50;;;11.60;99.90;;;;;;5081658;28;20562;-37
2023/11/21 12:15:40;;;;;;;8.63;7.05;;;11.60;99.90;;;;;;5083219;28;20024;-37
2023/11/21 12:18:05;;;;;;;10.35;7.55;;;11.70;99.90;;;;;;5082840;28;20031;-38
2023/11/21 12:20:31;;;;;;;7.63;6.22;;;11.60;99.90;;;;;;5082531;28;20459;-38
2023/11/21 12:22:59;;;;;;;7.57;6.38;;;11.60;99.90;;;;;;5082542;28;20028;-39
2023/11/21 12:25:31;;;;;;;9.93;7.65;;;11.60;99.90;;;;;;5083163;28;20028;-40
2023/11/21 12:27:57;;;;;;;9.45;6.68;;;11.50;99.90;;;;;;5081395;28;20031;-36
2023/11/21 12:30:27;;;;;;;9.07;7.05;;;11.50;99.90;;;;;;5082187;28;20536;-36
2023/11/21 12:32:55;;;;;;;8.93;6.03;;;11.50;99.90;;;;;;5082010;28;20047;-37
2023/11/21 12:35:23;;;;;;;10.82;7.32;;;11.50;99.90;;;;;;5081673;28;20144;-37
2023/11/21 12:37:50;;;;;;;12.05;8.70;;;11.50;99.90;;;;;;5081549;28;20028;-37
2023/11/21 12:40:17;;;;;;;13.35;9.60;;;11.40;99.90;;;;;;5082454;28;20027;-36
2023/11/21 12:42:43;;;;;;;12.35;9.23;;;11.50;99.90;;;;;;5081432;28;20089;-37
2023/11/21 12:45:20;;;;;;;12.05;8.77;;;11.50;99.90;;;;;;5081551;28;20465;-38